sensor_id;sensor_type;location;lat;lon;timestamp;pressure;altitude;pressure_sealevel;temperature;humidity
65832;BME280;52593;42.648;23.332;2022-12-10T00:01:43;93929.94;;;7.02;97.90
65832;BME280;52593;42.648;23.332;2022-12-10T00:04:10;93932.81;;;6.92;98.38
65832;BME280;52593;42.648;23.332;2022-12-10T00:06:37;93928.03;;;6.87;99.83
65832;BME280;52593;42.648;23.332;2022-12-10T00:09:05;93925.50;;;6.94;98.78
65832;BME280;52593;42.648;23.332;2022-12-10T00:11:31;93921.34;;;6.91;98.78
65832;BME280;52593;42.648;23.332;2022-12-10T00:13:57;93914.56;;;6.89;99.52
65832;BME280;52593;42.648;23.332;2022-12-10T00:16:25;93923.19;;;6.91;100.00
65832;BME280;52593;42.648;23.332;2022-12-10T00:18:52;93922.19;;;6.92;99.83
65832;BME280;52593;42.648;23.332;2022-12-10T00:21:23;93907.81;;;6.78;100.00
65832;BME280;52593;42.648;23.332;2022-12-10T00:23:49;93910.97;;;6.82;99.97
65832;BME280;52593;42.648;23.332;2022-12-10T00:26:26;93891.31;;;6.83;99.95
65832;BME280;52593;42.648;23.332;2022-12-10T00:28:52;93906.19;;;6.77;100.00
65832;BME280;52593;42.648;23.332;2022-12-10T00:31:19;93909.00;;;6.75;100.00
65832;BME280;52593;42.648;23.332;2022-12-10T00:33:45;93924.88;;;6.60;100.00
65832;BME280;52593;42.648;23.332;2022-12-10T00:36:17;93923.66;;;6.71;100.00
65832;BME280;52593;42.648;23.332;2022-12-10T00:38:43;93921.78;;;6.80;100.00
65832;BME280;52593;42.648;23.332;2022-12-10T00:41:10;93922.13;;;7.00;99.64
65832;BME280;52593;42.648;23.332;2022-12-10T00:43:35;93923.19;;;6.91;99.01
65832;BME280;52593;42.648;23.332;2022-12-10T00:46:01;93904.75;;;6.89;99.81
65832;BME280;52593;42.648;23.332;2022-12-10T00:48:27;93910.25;;;6.88;99.83
65832;BME280;52593;42.648;23.332;2022-12-10T00:50:58;93926.91;;;6.82;99.18
65832;BME280;52593;42.648;23.332;2022-12-10T00:53:24;93921.28;;;6.76;100.00
65832;BME280;52593;42.648;23.332;2022-12-10T00:55:50;93928.38;;;6.84;100.00
65832;BME280;52593;42.648;23.332;2022-12-10T00:58:15;93937.41;;;6.75;100.00
65832;BME280;52593;42.648;23.332;2022-12-10T01:00:41;93932.75;;;6.77;100.00
65832;BME280;52593;42.648;23.332;2022-12-10T01:03:06;93926.75;;;6.83;100.00
65832;BME280;52593;42.648;23.332;2022-12-10T01:05:31;93927.16;;;6.95;99.41
65832;BME280;52593;42.648;23.332;2022-12-10T01:07:57;93918.34;;;6.94;99.39
65832;BME280;52593;42.648;23.332;2022-12-10T01:10:22;93922.19;;;6.92;99.93
65832;BME280;52593;42.648;23.332;2022-12-10T01:12:48;93917.63;;;6.77;100.00
65832;BME280;52593;42.648;23.332;2022-12-10T01:15:13;93913.72;;;6.88;100.00
65832;BME280;52593;42.648;23.332;2022-12-10T01:17:38;93905.94;;;6.87;100.00
65832;BME280;52593;42.648;23.332;2022-12-10T01:20:04;93912.25;;;6.86;100.00
65832;BME280;52593;42.648;23.332;2022-12-10T01:22:29;93912.91;;;6.88;100.00
65832;BME280;52593;42.648;23.332;2022-12-10T01:24:55;93897.31;;;6.85;100.00
65832;BME280;52593;42.648;23.332;2022-12-10T01:27:20;93890.22;;;6.77;100.00
65832;BME280;52593;42.648;23.332;2022-12-10T01:29:46;93885.19;;;6.82;100.00
65832;BME280;52593;42.648;23.332;2022-12-10T01:32:11;93892.00;;;6.85;100.00
65832;BME280;52593;42.648;23.332;2022-12-10T01:34:36;93886.50;;;6.86;100.00
65832;BME280;52593;42.648;23.332;2022-12-10T01:37:02;93879.75;;;6.75;100.00
65832;BME280;52593;42.648;23.332;2022-12-10T01:39:27;93885.91;;;6.76;100.00
65832;BME280;52593;42.648;23.332;2022-12-10T01:41:58;93894.22;;;6.73;100.00
65832;BME280;52593;42.648;23.332;2022-12-10T01:46:51;93902.56;;;6.93;100.00
65832;BME280;52593;42.648;23.332;2022-12-10T01:49:19;93899.31;;;6.83;100.00
65832;BME280;52593;42.648;23.332;2022-12-10T01:51:47;93866.47;;;6.75;100.00
65832;BME280;52593;42.648;23.332;2022-12-10T01:54:18;93871.78;;;6.75;100.00
65832;BME280;52593;42.648;23.332;2022-12-10T01:56:50;93880.69;;;6.83;100.00
65832;BME280;52593;42.648;23.332;2022-12-10T01:59:16;93882.94;;;6.71;100.00
65832;BME280;52593;42.648;23.332;2022-12-10T02:01:52;93896.00;;;6.81;100.00
65832;BME280;52593;42.648;23.332;2022-12-10T02:04:31;93893.44;;;6.87;100.00
65832;BME280;52593;42.648;23.332;2022-12-10T02:07:04;93888.28;;;6.94;100.00
65832;BME280;52593;42.648;23.332;2022-12-10T02:14:41;93905.94;;;7.10;100.00
65832;BME280;52593;42.648;23.332;2022-12-10T02:17:26;93899.78;;;7.09;100.00
65832;BME280;52593;42.648;23.332;2022-12-10T02:20:41;93899.53;;;7.19;100.00
65832;BME280;52593;42.648;23.332;2022-12-10T02:23:08;93881.28;;;7.16;100.00
65832;BME280;52593;42.648;23.332;2022-12-10T02:30:44;93858.50;;;7.13;100.00
65832;BME280;52593;42.648;23.332;2022-12-10T02:33:11;93876.19;;;7.29;100.00
65832;BME280;52593;42.648;23.332;2022-12-10T02:35:39;93861.06;;;7.45;98.54
65832;BME280;52593;42.648;23.332;2022-12-10T02:38:12;93858.66;;;7.35;99.54
65832;BME280;52593;42.648;23.332;2022-12-10T02:40:44;93859.22;;;7.45;98.85
65832;BME280;52593;42.648;23.332;2022-12-10T02:43:12;93862.25;;;7.42;98.21
65832;BME280;52593;42.648;23.332;2022-12-10T02:45:38;93847.84;;;7.37;98.60
65832;BME280;52593;42.648;23.332;2022-12-10T02:48:04;93838.97;;;7.21;99.97
65832;BME280;52593;42.648;23.332;2022-12-10T02:50:30;93839.09;;;7.28;100.00
65832;BME280;52593;42.648;23.332;2022-12-10T02:52:56;93848.66;;;7.37;100.00
65832;BME280;52593;42.648;23.332;2022-12-10T02:55:21;93860.25;;;7.44;99.39
65832;BME280;52593;42.648;23.332;2022-12-10T03:00:19;93866.72;;;7.27;100.00
65832;BME280;52593;42.648;23.332;2022-12-10T03:08:12;93854.06;;;7.29;100.00
65832;BME280;52593;42.648;23.332;2022-12-10T03:10:44;93840.41;;;7.47;99.93
65832;BME280;52593;42.648;23.332;2022-12-10T03:13:12;93861.34;;;7.65;99.43
65832;BME280;52593;42.648;23.332;2022-12-10T03:15:40;93845.84;;;7.68;98.95
65832;BME280;52593;42.648;23.332;2022-12-10T03:18:08;93851.34;;;7.67;98.28
65832;BME280;52593;42.648;23.332;2022-12-10T03:20:38;93844.47;;;7.73;97.80
65832;BME280;52593;42.648;23.332;2022-12-10T03:23:08;93854.84;;;7.67;98.85
65832;BME280;52593;42.648;23.332;2022-12-10T03:25:35;93870.66;;;7.69;99.13
65832;BME280;52593;42.648;23.332;2022-12-10T03:28:03;93860.91;;;7.61;99.10
65832;BME280;52593;42.648;23.332;2022-12-10T03:30:31;93851.06;;;7.47;100.00
65832;BME280;52593;42.648;23.332;2022-12-10T03:32:57;93845.84;;;7.54;100.00
65832;BME280;52593;42.648;23.332;2022-12-10T03:35:23;93853.63;;;7.70;99.01
65832;BME280;52593;42.648;23.332;2022-12-10T03:37:49;93845.94;;;7.60;98.97
65832;BME280;52593;42.648;23.332;2022-12-10T03:40:18;93839.44;;;7.63;98.68
65832;BME280;52593;42.648;23.332;2022-12-10T03:42:45;93844.38;;;7.51;100.00
65832;BME280;52593;42.648;23.332;2022-12-10T03:45:10;93849.22;;;7.62;99.59
65832;BME280;52593;42.648;23.332;2022-12-10T03:47:36;93843.91;;;7.77;97.80
65832;BME280;52593;42.648;23.332;2022-12-10T03:50:02;93842.00;;;7.71;98.94
65832;BME280;52593;42.648;23.332;2022-12-10T03:52:28;93831.16;;;7.88;97.70
65832;BME280;52593;42.648;23.332;2022-12-10T03:54:53;93819.47;;;7.89;97.20
65832;BME280;52593;42.648;23.332;2022-12-10T03:57:19;93817.09;;;7.94;97.63
65832;BME280;52593;42.648;23.332;2022-12-10T03:59:44;93816.53;;;7.98;96.99
65832;BME280;52593;42.648;23.332;2022-12-10T04:02:10;93823.59;;;8.06;96.81
65832;BME280;52593;42.648;23.332;2022-12-10T04:04:36;93831.84;;;8.11;97.00
65832;BME280;52593;42.648;23.332;2022-12-10T04:07:01;93831.59;;;8.06;96.95
65832;BME280;52593;42.648;23.332;2022-12-10T04:09:27;93825.41;;;8.20;95.94
65832;BME280;52593;42.648;23.332;2022-12-10T04:11:56;93821.25;;;8.33;94.50
65832;BME280;52593;42.648;23.332;2022-12-10T04:14:22;93800.66;;;8.27;95.23
65832;BME280;52593;42.648;23.332;2022-12-10T04:17:07;93801.34;;;8.14;96.22
65832;BME280;52593;42.648;23.332;2022-12-10T04:19:32;93799.13;;;8.17;95.70
65832;BME280;52593;42.648;23.332;2022-12-10T04:21:57;93809.41;;;8.20;95.52
65832;BME280;52593;42.648;23.332;2022-12-10T04:24:41;93819.28;;;8.05;96.30
65832;BME280;52593;42.648;23.332;2022-12-10T04:29:55;93828.94;;;8.06;97.05
65832;BME280;52593;42.648;23.332;2022-12-10T04:32:22;93832.22;;;8.08;97.00
65832;BME280;52593;42.648;23.332;2022-12-10T04:34:48;93834.88;;;8.08;97.40
65832;BME280;52593;42.648;23.332;2022-12-10T04:37:15;93850.25;;;8.06;98.21
65832;BME280;52593;42.648;23.332;2022-12-10T04:39:40;93861.47;;;8.16;97.87
65832;BME280;52593;42.648;23.332;2022-12-10T04:42:07;93852.53;;;8.09;98.34
65832;BME280;52593;42.648;23.332;2022-12-10T04:44:32;93860.28;;;8.04;99.12
65832;BME280;52593;42.648;23.332;2022-12-10T04:46:58;93864.38;;;8.07;99.10
65832;BME280;52593;42.648;23.332;2022-12-10T04:49:24;93851.34;;;8.12;98.47
65832;BME280;52593;42.648;23.332;2022-12-10T04:51:50;93845.56;;;8.08;99.50
65832;BME280;52593;42.648;23.332;2022-12-10T04:54:16;93863.84;;;8.11;99.30
65832;BME280;52593;42.648;23.332;2022-12-10T04:56:42;93845.47;;;8.16;99.20
65832;BME280;52593;42.648;23.332;2022-12-10T04:59:08;93838.41;;;8.09;100.00
65832;BME280;52593;42.648;23.332;2022-12-10T05:01:34;93851.72;;;8.09;100.00
65832;BME280;52593;42.648;23.332;2022-12-10T05:04:01;93849.31;;;8.14;100.00
65832;BME280;52593;42.648;23.332;2022-12-10T05:06:27;93851.19;;;7.98;100.00
65832;BME280;52593;42.648;23.332;2022-12-10T05:08:53;93856.50;;;7.98;100.00
65832;BME280;52593;42.648;23.332;2022-12-10T05:14:04;93847.75;;;7.75;100.00
65832;BME280;52593;42.648;23.332;2022-12-10T05:16:31;93847.94;;;7.73;100.00
65832;BME280;52593;42.648;23.332;2022-12-10T05:18:57;93836.28;;;7.74;100.00
65832;BME280;52593;42.648;23.332;2022-12-10T05:21:25;93814.81;;;7.76;100.00
65832;BME280;52593;42.648;23.332;2022-12-10T05:24:11;93816.19;;;7.86;100.00
65832;BME280;52593;42.648;23.332;2022-12-10T05:26:37;93823.97;;;7.73;100.00
65832;BME280;52593;42.648;23.332;2022-12-10T05:29:02;93829.69;;;7.85;100.00
65832;BME280;52593;42.648;23.332;2022-12-10T05:31:29;93829.44;;;8.31;100.00
65832;BME280;52593;42.648;23.332;2022-12-10T05:33:56;93826.75;;;7.95;100.00
65832;BME280;52593;42.648;23.332;2022-12-10T05:36:24;93835.13;;;7.92;100.00
65832;BME280;52593;42.648;23.332;2022-12-10T05:38:50;93838.41;;;7.94;100.00
65832;BME280;52593;42.648;23.332;2022-12-10T05:41:18;93846.94;;;8.04;100.00
65832;BME280;52593;42.648;23.332;2022-12-10T05:43:45;93844.66;;;8.01;100.00
65832;BME280;52593;42.648;23.332;2022-12-10T05:46:22;93840.06;;;7.95;100.00
65832;BME280;52593;42.648;23.332;2022-12-10T05:48:49;93841.63;;;7.89;100.00
65832;BME280;52593;42.648;23.332;2022-12-10T05:51:17;93853.66;;;7.85;100.00
65832;BME280;52593;42.648;23.332;2022-12-10T05:53:43;93851.16;;;7.83;100.00
65832;BME280;52593;42.648;23.332;2022-12-10T05:56:10;93853.56;;;7.93;100.00
65832;BME280;52593;42.648;23.332;2022-12-10T05:58:37;93855.69;;;7.98;100.00
65832;BME280;52593;42.648;23.332;2022-12-10T06:01:12;93857.31;;;7.99;100.00
65832;BME280;52593;42.648;23.332;2022-12-10T06:03:38;93862.28;;;8.02;100.00
65832;BME280;52593;42.648;23.332;2022-12-10T06:06:04;93856.44;;;7.92;100.00
65832;BME280;52593;42.648;23.332;2022-12-10T06:08:30;93866.59;;;7.88;100.00
65832;BME280;52593;42.648;23.332;2022-12-10T06:10:55;93869.81;;;7.83;100.00
65832;BME280;52593;42.648;23.332;2022-12-10T06:13:23;93868.25;;;7.89;100.00
65832;BME280;52593;42.648;23.332;2022-12-10T06:15:48;93855.94;;;7.88;100.00
65832;BME280;52593;42.648;23.332;2022-12-10T06:18:14;93866.31;;;8.28;100.00
65832;BME280;52593;42.648;23.332;2022-12-10T06:20:40;93855.75;;;8.19;100.00
65832;BME280;52593;42.648;23.332;2022-12-10T06:23:05;93851.44;;;8.18;100.00
65832;BME280;52593;42.648;23.332;2022-12-10T06:25:31;93849.56;;;8.19;100.00
65832;BME280;52593;42.648;23.332;2022-12-10T06:27:57;93857.69;;;8.26;100.00
65832;BME280;52593;42.648;23.332;2022-12-10T06:30:22;93856.69;;;8.12;100.00
65832;BME280;52593;42.648;23.332;2022-12-10T06:32:47;93853.34;;;8.10;100.00
65832;BME280;52593;42.648;23.332;2022-12-10T06:35:13;93841.88;;;8.09;100.00
65832;BME280;52593;42.648;23.332;2022-12-10T06:37:38;93827.00;;;8.00;100.00
65832;BME280;52593;42.648;23.332;2022-12-10T06:40:04;93836.94;;;8.06;100.00
65832;BME280;52593;42.648;23.332;2022-12-10T06:42:30;93834.63;;;8.03;100.00
65832;BME280;52593;42.648;23.332;2022-12-10T06:44:55;93835.63;;;8.02;100.00
65832;BME280;52593;42.648;23.332;2022-12-10T06:47:21;93832.41;;;8.07;100.00
65832;BME280;52593;42.648;23.332;2022-12-10T06:49:46;93848.50;;;8.13;100.00
65832;BME280;52593;42.648;23.332;2022-12-10T06:52:11;93849.25;;;8.07;100.00
65832;BME280;52593;42.648;23.332;2022-12-10T06:54:37;93862.47;;;8.15;100.00
65832;BME280;52593;42.648;23.332;2022-12-10T06:57:02;93873.13;;;8.15;100.00
65832;BME280;52593;42.648;23.332;2022-12-10T06:59:28;93860.41;;;8.17;100.00
65832;BME280;52593;42.648;23.332;2022-12-10T07:01:53;93861.47;;;8.16;100.00
65832;BME280;52593;42.648;23.332;2022-12-10T07:04:19;93846.66;;;8.14;100.00
65832;BME280;52593;42.648;23.332;2022-12-10T07:06:44;93852.72;;;8.08;100.00
65832;BME280;52593;42.648;23.332;2022-12-10T07:09:09;93868.72;;;8.23;100.00
65832;BME280;52593;42.648;23.332;2022-12-10T07:11:35;93880.09;;;8.16;100.00
65832;BME280;52593;42.648;23.332;2022-12-10T07:14:01;93867.78;;;8.15;100.00
65832;BME280;52593;42.648;23.332;2022-12-10T07:16:29;93855.66;;;8.13;100.00
65832;BME280;52593;42.648;23.332;2022-12-10T07:18:56;93858.97;;;8.15;100.00
65832;BME280;52593;42.648;23.332;2022-12-10T07:21:24;93859.97;;;8.14;100.00
65832;BME280;52593;42.648;23.332;2022-12-10T07:23:52;93854.25;;;8.32;100.00
65832;BME280;52593;42.648;23.332;2022-12-10T07:26:33;93847.28;;;8.46;100.00
65832;BME280;52593;42.648;23.332;2022-12-10T07:28:59;93833.38;;;8.35;100.00
65832;BME280;52593;42.648;23.332;2022-12-10T07:31:25;93816.00;;;8.39;100.00
65832;BME280;52593;42.648;23.332;2022-12-10T07:33:52;93818.94;;;8.30;100.00
65832;BME280;52593;42.648;23.332;2022-12-10T07:36:18;93837.59;;;8.30;100.00
65832;BME280;52593;42.648;23.332;2022-12-10T07:38:44;93839.66;;;8.28;100.00
65832;BME280;52593;42.648;23.332;2022-12-10T07:41:11;93828.50;;;8.39;100.00
65832;BME280;52593;42.648;23.332;2022-12-10T07:43:39;93831.34;;;8.37;100.00
65832;BME280;52593;42.648;23.332;2022-12-10T07:46:10;93848.75;;;8.33;100.00
65832;BME280;52593;42.648;23.332;2022-12-10T07:48:37;93850.34;;;8.64;100.00
65832;BME280;52593;42.648;23.332;2022-12-10T07:51:04;93841.91;;;8.61;100.00
65832;BME280;52593;42.648;23.332;2022-12-10T07:53:30;93839.44;;;8.59;100.00
65832;BME280;52593;42.648;23.332;2022-12-10T07:55:55;93836.88;;;8.51;100.00
65832;BME280;52593;42.648;23.332;2022-12-10T07:58:20;93821.78;;;8.58;100.00
65832;BME280;52593;42.648;23.332;2022-12-10T08:00:46;93816.38;;;8.73;100.00
65832;BME280;52593;42.648;23.332;2022-12-10T08:03:11;93821.34;;;8.98;100.00
65832;BME280;52593;42.648;23.332;2022-12-10T08:05:37;93804.09;;;9.00;100.00
65832;BME280;52593;42.648;23.332;2022-12-10T08:08:02;93796.63;;;8.89;100.00
65832;BME280;52593;42.648;23.332;2022-12-10T08:10:28;93801.19;;;8.95;100.00
65832;BME280;52593;42.648;23.332;2022-12-10T08:12:53;93807.69;;;9.14;100.00
65832;BME280;52593;42.648;23.332;2022-12-10T08:15:19;93801.38;;;8.93;100.00
65832;BME280;52593;42.648;23.332;2022-12-10T08:17:44;93795.50;;;9.05;100.00
65832;BME280;52593;42.648;23.332;2022-12-10T08:20:10;93800.22;;;9.03;100.00
65832;BME280;52593;42.648;23.332;2022-12-10T08:22:35;93804.78;;;9.09;100.00
65832;BME280;52593;42.648;23.332;2022-12-10T08:25:01;93798.69;;;9.15;100.00
65832;BME280;52593;42.648;23.332;2022-12-10T08:27:27;93795.19;;;9.15;100.00
65832;BME280;52593;42.648;23.332;2022-12-10T08:29:52;93803.13;;;9.08;100.00
65832;BME280;52593;42.648;23.332;2022-12-10T08:32:18;93801.59;;;9.20;100.00
65832;BME280;52593;42.648;23.332;2022-12-10T08:34:43;93789.72;;;9.23;100.00
65832;BME280;52593;42.648;23.332;2022-12-10T08:37:09;93794.47;;;9.27;100.00
65832;BME280;52593;42.648;23.332;2022-12-10T08:39:34;93791.19;;;9.25;100.00
65832;BME280;52593;42.648;23.332;2022-12-10T08:41:59;93780.78;;;9.37;100.00
65832;BME280;52593;42.648;23.332;2022-12-10T08:44:25;93770.91;;;9.31;100.00
65832;BME280;52593;42.648;23.332;2022-12-10T08:46:50;93771.88;;;9.23;100.00
65832;BME280;52593;42.648;23.332;2022-12-10T08:49:16;93775.38;;;9.31;100.00
65832;BME280;52593;42.648;23.332;2022-12-10T08:51:41;93773.69;;;9.51;100.00
65832;BME280;52593;42.648;23.332;2022-12-10T08:54:07;93766.50;;;9.52;100.00
65832;BME280;52593;42.648;23.332;2022-12-10T08:56:32;93773.19;;;9.34;100.00
65832;BME280;52593;42.648;23.332;2022-12-10T08:58:57;93768.22;;;9.31;100.00
65832;BME280;52593;42.648;23.332;2022-12-10T09:01:24;93767.94;;;9.19;100.00
65832;BME280;52593;42.648;23.332;2022-12-10T09:03:50;93772.97;;;9.36;100.00
65832;BME280;52593;42.648;23.332;2022-12-10T09:06:18;93764.97;;;9.36;100.00
65832;BME280;52593;42.648;23.332;2022-12-10T09:08:44;93749.66;;;9.51;100.00
65832;BME280;52593;42.648;23.332;2022-12-10T09:11:22;93744.41;;;9.30;100.00
65832;BME280;52593;42.648;23.332;2022-12-10T09:13:50;93732.75;;;9.37;100.00
65832;BME280;52593;42.648;23.332;2022-12-10T09:16:16;93742.03;;;9.48;100.00
65832;BME280;52593;42.648;23.332;2022-12-10T09:18:42;93752.84;;;9.40;100.00
65832;BME280;52593;42.648;23.332;2022-12-10T09:21:10;93752.53;;;9.50;100.00
65832;BME280;52593;42.648;23.332;2022-12-10T09:23:37;93764.94;;;9.71;100.00
65832;BME280;52593;42.648;23.332;2022-12-10T09:26:11;93763.22;;;9.50;100.00
65832;BME280;52593;42.648;23.332;2022-12-10T09:28:38;93751.22;;;9.39;100.00
65832;BME280;52593;42.648;23.332;2022-12-10T09:31:05;93744.22;;;9.38;100.00
65832;BME280;52593;42.648;23.332;2022-12-10T09:33:31;93750.84;;;9.42;100.00
65832;BME280;52593;42.648;23.332;2022-12-10T09:35:57;93749.66;;;9.51;100.00
65832;BME280;52593;42.648;23.332;2022-12-10T09:38:23;93727.03;;;9.47;100.00
65832;BME280;52593;42.648;23.332;2022-12-10T09:41:18;93720.47;;;9.50;100.00
65832;BME280;52593;42.648;23.332;2022-12-10T09:46:52;93726.25;;;9.53;100.00
65832;BME280;52593;42.648;23.332;2022-12-10T09:52:13;93703.22;;;9.52;100.00
65832;BME280;52593;42.648;23.332;2022-12-10T09:54:48;93708.41;;;9.60;100.00
65832;BME280;52593;42.648;23.332;2022-12-10T09:57:45;93699.34;;;9.61;100.00
65832;BME280;52593;42.648;23.332;2022-12-10T10:00:29;93702.47;;;9.65;100.00
65832;BME280;52593;42.648;23.332;2022-12-10T10:02:57;93700.63;;;9.66;100.00
65832;BME280;52593;42.648;23.332;2022-12-10T10:05:35;93701.00;;;9.62;100.00
65832;BME280;52593;42.648;23.332;2022-12-10T10:08:06;93698.22;;;9.84;100.00
65832;BME280;52593;42.648;23.332;2022-12-10T10:10:39;93693.94;;;9.96;100.00
65832;BME280;52593;42.648;23.332;2022-12-10T10:15:35;93692.47;;;9.87;99.03
65832;BME280;52593;42.648;23.332;2022-12-10T10:18:09;93695.25;;;10.21;98.07
65832;BME280;52593;42.648;23.332;2022-12-10T10:20:38;93692.78;;;10.19;97.79
65832;BME280;52593;42.648;23.332;2022-12-10T10:23:03;93685.44;;;10.34;97.63
65832;BME280;52593;42.648;23.332;2022-12-10T10:25:29;93684.78;;;10.26;97.17
65832;BME280;52593;42.648;23.332;2022-12-10T10:27:55;93673.13;;;10.53;96.04
65832;BME280;52593;42.648;23.332;2022-12-10T10:30:22;93671.91;;;10.69;94.99
65832;BME280;52593;42.648;23.332;2022-12-10T10:32:52;93667.97;;;10.59;95.38
65832;BME280;52593;42.648;23.332;2022-12-10T10:37:52;93660.34;;;10.82;94.93
65832;BME280;52593;42.648;23.332;2022-12-10T10:40:27;93652.53;;;10.94;94.50
65832;BME280;52593;42.648;23.332;2022-12-10T10:42:55;93649.19;;;11.19;93.57
65832;BME280;52593;42.648;23.332;2022-12-10T10:45:41;93634.31;;;11.95;90.56
65832;BME280;52593;42.648;23.332;2022-12-10T10:48:20;93626.34;;;13.77;88.96
65832;BME280;52593;42.648;23.332;2022-12-10T10:50:51;93633.94;;;16.75;76.32
65832;BME280;52593;42.648;23.332;2022-12-10T10:53:29;93623.72;;;16.32;66.95
65832;BME280;52593;42.648;23.332;2022-12-10T10:55:59;93646.56;;;13.24;78.69
65832;BME280;52593;42.648;23.332;2022-12-10T10:58:25;93641.09;;;12.36;83.73
65832;BME280;52593;42.648;23.332;2022-12-10T11:01:09;93624.59;;;12.01;86.30
65832;BME280;52593;42.648;23.332;2022-12-10T11:03:36;93614.13;;;11.92;86.94
65832;BME280;52593;42.648;23.332;2022-12-10T11:06:12;93613.44;;;12.04;86.66
65832;BME280;52593;42.648;23.332;2022-12-10T11:08:38;93615.34;;;11.97;88.10
65832;BME280;52593;42.648;23.332;2022-12-10T11:14:13;93598.41;;;12.28;87.40
65832;BME280;52593;42.648;23.332;2022-12-10T11:16:38;93589.38;;;12.54;86.42
65832;BME280;52593;42.648;23.332;2022-12-10T11:19:04;93575.19;;;12.47;85.73
65832;BME280;52593;42.648;23.332;2022-12-10T11:21:33;93572.53;;;12.40;86.05
65832;BME280;52593;42.648;23.332;2022-12-10T11:23:59;93565.66;;;12.51;86.34
65832;BME280;52593;42.648;23.332;2022-12-10T11:34:14;93572.59;;;13.02;84.55
65832;BME280;52593;42.648;23.332;2022-12-10T11:39:28;93561.91;;;12.77;84.79
65832;BME280;52593;42.648;23.332;2022-12-10T11:42:04;93553.19;;;12.82;84.60
65832;BME280;52593;42.648;23.332;2022-12-10T11:44:43;93558.25;;;12.90;84.51
65832;BME280;52593;42.648;23.332;2022-12-10T11:50:57;93555.44;;;12.85;84.02
65832;BME280;52593;42.648;23.332;2022-12-10T11:53:38;93552.13;;;12.83;84.25
65832;BME280;52593;42.648;23.332;2022-12-10T11:56:12;93565.78;;;13.00;83.89
65832;BME280;52593;42.648;23.332;2022-12-10T11:58:56;93557.06;;;12.86;84.53
65832;BME280;52593;42.648;23.332;2022-12-10T12:01:29;93541.09;;;12.73;85.46
65832;BME280;52593;42.648;23.332;2022-12-10T12:09:37;93538.09;;;12.62;84.94
65832;BME280;52593;42.648;23.332;2022-12-10T12:14:53;93533.88;;;12.48;86.07
65832;BME280;52593;42.648;23.332;2022-12-10T12:19:54;93540.56;;;12.39;86.80
65832;BME280;52593;42.648;23.332;2022-12-10T12:22:33;93525.13;;;12.34;86.85
65832;BME280;52593;42.648;23.332;2022-12-10T12:25:04;93525.34;;;12.32;87.15
65832;BME280;52593;42.648;23.332;2022-12-10T12:27:53;93511.94;;;12.32;87.30
65832;BME280;52593;42.648;23.332;2022-12-10T12:30:22;93514.25;;;12.29;89.02
65832;BME280;52593;42.648;23.332;2022-12-10T12:32:53;93523.66;;;12.38;88.91
65832;BME280;52593;42.648;23.332;2022-12-10T12:41:14;93492.50;;;12.37;88.42
65832;BME280;52593;42.648;23.332;2022-12-10T12:44:28;93484.16;;;12.27;89.30
65832;BME280;52593;42.648;23.332;2022-12-10T12:46:51;93470.56;;;12.22;89.95
65832;BME280;52593;42.648;23.332;2022-12-10T12:49:35;93481.75;;;12.37;89.09
65832;BME280;52593;42.648;23.332;2022-12-10T12:55:02;93471.91;;;12.31;88.59
65832;BME280;52593;42.648;23.332;2022-12-10T12:57:45;93469.22;;;12.31;88.50
65832;BME280;52593;42.648;23.332;2022-12-10T13:00:15;93466.84;;;12.23;88.85
65832;BME280;52593;42.648;23.332;2022-12-10T13:05:31;93439.91;;;12.11;89.86
65832;BME280;52593;42.648;23.332;2022-12-10T13:11:00;93444.53;;;12.04;90.19
65832;BME280;52593;42.648;23.332;2022-12-10T13:14:02;93460.69;;;11.90;91.77
65832;BME280;52593;42.648;23.332;2022-12-10T13:24:20;93441.91;;;11.97;91.36
65832;BME280;52593;42.648;23.332;2022-12-10T13:27:14;93463.38;;;11.90;91.65
65832;BME280;52593;42.648;23.332;2022-12-10T13:29:47;93466.28;;;11.89;91.78
65832;BME280;52593;42.648;23.332;2022-12-10T13:32:42;93422.84;;;11.80;92.74
65832;BME280;52593;42.648;23.332;2022-12-10T13:40:43;93398.78;;;11.73;92.59
65832;BME280;52593;42.648;23.332;2022-12-10T13:43:40;93405.00;;;11.67;92.69
65832;BME280;52593;42.648;23.332;2022-12-10T13:46:29;93420.03;;;11.68;92.97
65832;BME280;52593;42.648;23.332;2022-12-10T13:48:57;93413.50;;;11.64;93.29
65832;BME280;52593;42.648;23.332;2022-12-10T13:54:31;93406.84;;;11.67;93.26
65832;BME280;52593;42.648;23.332;2022-12-10T13:56:49;93409.44;;;11.80;91.54
65832;BME280;52593;42.648;23.332;2022-12-10T14:07:47;93398.78;;;11.73;91.50
65832;BME280;52593;42.648;23.332;2022-12-10T14:10:18;93404.56;;;11.70;91.46
65832;BME280;52593;42.648;23.332;2022-12-10T14:12:45;93404.59;;;11.64;92.17
65832;BME280;52593;42.648;23.332;2022-12-10T14:15:24;93396.03;;;11.55;92.85
65832;BME280;52593;42.648;23.332;2022-12-10T14:17:54;93394.50;;;11.66;92.20
65832;BME280;52593;42.648;23.332;2022-12-10T14:20:24;93399.66;;;11.67;91.49
65832;BME280;52593;42.648;23.332;2022-12-10T14:22:53;93394.94;;;11.63;91.22
65832;BME280;52593;42.648;23.332;2022-12-10T14:25:21;93384.16;;;11.44;92.54
65832;BME280;52593;42.648;23.332;2022-12-10T14:27:50;93373.72;;;11.61;90.96
65832;BME280;52593;42.648;23.332;2022-12-10T14:30:18;93370.72;;;11.26;93.50
65832;BME280;52593;42.648;23.332;2022-12-10T14:32:44;93361.38;;;11.03;96.00
65832;BME280;52593;42.648;23.332;2022-12-10T14:35:16;93366.22;;;11.19;95.86
65832;BME280;52593;42.648;23.332;2022-12-10T14:37:46;93355.44;;;11.26;95.46
65832;BME280;52593;42.648;23.332;2022-12-10T14:40:31;93357.63;;;11.11;95.97
65832;BME280;52593;42.648;23.332;2022-12-10T14:43:05;93349.34;;;10.80;97.90
65832;BME280;52593;42.648;23.332;2022-12-10T14:45:40;93343.63;;;10.77;98.80
65832;BME280;52593;42.648;23.332;2022-12-10T14:48:11;93348.53;;;10.80;99.35